createdAt,value
2018-06-24T00:00:02.819Z,88.60
2018-06-24T00:02:30.890Z,88.40
2018-06-24T00:04:58.954Z,88.40
2018-06-24T00:07:27.026Z,88.30
2018-06-24T00:09:55.110Z,88.20
2018-06-24T00:12:23.280Z,88.30
2018-06-24T00:14:51.398Z,88.20
2018-06-24T00:17:19.486Z,88.20
2018-06-24T00:19:47.579Z,88.20
2018-06-24T00:22:15.670Z,88.30
2018-06-24T00:24:43.755Z,88.40
2018-06-24T00:29:39.763Z,88.60
2018-06-24T00:32:07.829Z,88.50
2018-06-24T00:34:36.022Z,88.70
2018-06-24T00:37:04.114Z,88.70
2018-06-24T00:39:32.218Z,88.80
2018-06-24T00:42:00.287Z,88.90
2018-06-24T00:44:28.414Z,89.00
2018-06-24T00:46:56.496Z,89.00
2018-06-24T00:49:24.558Z,89.40
2018-06-24T00:51:52.647Z,89.50
2018-06-24T00:54:20.770Z,89.90
2018-06-24T00:56:48.819Z,90.00
2018-06-24T00:59:28.504Z,90.30
2018-06-24T01:01:56.575Z,90.20
2018-06-24T01:04:24.663Z,90.20
2018-06-24T01:09:20.598Z,90.40
2018-06-24T01:11:48.678Z,90.60
2018-06-24T01:14:16.743Z,90.40
2018-06-24T01:16:44.823Z,90.80
2018-06-24T01:19:12.914Z,90.60
2018-06-24T01:21:40.982Z,90.70
2018-06-24T01:24:09.058Z,90.60
2018-06-24T01:26:37.130Z,90.60
2018-06-24T01:29:05.215Z,90.60
2018-06-24T01:31:33.299Z,90.60
2018-06-24T01:34:01.379Z,90.60
2018-06-24T01:36:29.434Z,90.70
2018-06-24T01:38:57.511Z,90.70
2018-06-24T01:41:25.574Z,90.70
2018-06-24T01:43:53.656Z,90.80
2018-06-24T01:46:21.747Z,90.80
2018-06-24T01:48:49.891Z,90.90
2018-06-24T01:51:17.970Z,91.00
2018-06-24T01:53:46.048Z,91.00
2018-06-24T01:56:14.130Z,91.40
2018-06-24T01:58:42.224Z,91.50
2018-06-24T02:01:10.309Z,91.90
2018-06-24T02:03:38.390Z,91.80
2018-06-24T02:06:06.744Z,91.70
2018-06-24T02:08:34.970Z,91.80
2018-06-24T02:11:03.051Z,91.60
2018-06-24T02:13:31.126Z,91.60
2018-06-24T02:15:59.200Z,91.50
2018-06-24T02:18:27.271Z,91.50
2018-06-24T02:20:55.380Z,91.80
2018-06-24T02:23:23.510Z,91.60
2018-06-24T02:25:51.566Z,91.60
2018-06-24T02:30:47.582Z,91.70
2018-06-24T02:33:15.709Z,91.70
2018-06-24T02:35:43.782Z,91.70
2018-06-24T02:38:11.864Z,91.80
2018-06-24T02:40:39.949Z,92.00
2018-06-24T02:43:08.094Z,92.10
2018-06-24T02:45:36.218Z,92.10
2018-06-24T02:48:04.255Z,92.20
2018-06-24T02:50:32.347Z,92.30
2018-06-24T02:53:00.434Z,92.30
2018-06-24T02:55:28.504Z,92.40
2018-06-24T02:57:56.579Z,92.50
2018-06-24T03:00:24.658Z,92.50
2018-06-24T03:02:52.754Z,92.70
2018-06-24T03:05:20.854Z,92.80
2018-06-24T03:07:48.934Z,92.70
2018-06-24T03:10:17.027Z,92.80
2018-06-24T03:12:45.103Z,92.90
2018-06-24T03:15:13.179Z,92.90
2018-06-24T03:17:41.255Z,93.00
2018-06-24T03:20:09.363Z,92.90
2018-06-24T03:25:05.302Z,93.00
2018-06-24T03:27:33.374Z,93.10
2018-06-24T03:30:01.435Z,93.10
2018-06-24T03:32:29.507Z,93.20
2018-06-24T03:34:57.654Z,93.30
2018-06-24T03:37:25.754Z,93.30
2018-06-24T03:39:53.826Z,93.30
2018-06-24T03:44:49.841Z,93.30
2018-06-24T03:47:17.945Z,93.30
2018-06-24T03:49:46.034Z,93.30
2018-06-24T03:52:14.110Z,93.20
2018-06-24T03:54:42.182Z,93.10
2018-06-24T03:57:10.292Z,93.10
2018-06-24T03:59:38.396Z,93.00
2018-06-24T04:02:06.478Z,93.00
2018-06-24T04:04:34.550Z,93.00
2018-06-24T04:07:02.654Z,93.00
2018-06-24T04:09:30.710Z,92.70
2018-06-24T04:11:58.806Z,92.70
2018-06-24T04:14:26.870Z,92.60
2018-06-24T04:16:54.973Z,92.40
2018-06-24T04:19:23.046Z,92.10
2018-06-24T04:21:51.140Z,92.00
2018-06-24T04:26:47.162Z,91.90
2018-06-24T04:29:15.234Z,91.90
2018-06-24T04:34:11.268Z,91.70
2018-06-24T04:36:39.331Z,91.60
2018-06-24T04:39:08.637Z,91.50
2018-06-24T04:41:36.718Z,91.50
2018-06-24T04:44:04.816Z,91.20
2018-06-24T04:46:32.898Z,91.20
2018-06-24T04:49:00.983Z,91.10
2018-06-24T04:51:29.401Z,91.00
2018-06-24T04:53:57.882Z,90.90
2018-06-24T04:56:26.160Z,90.80
2018-06-24T04:58:54.445Z,90.70
2018-06-24T05:01:22.526Z,90.70
2018-06-24T05:03:50.602Z,90.70
2018-06-24T05:06:18.678Z,90.60
2018-06-24T05:08:46.770Z,90.50
2018-06-24T05:11:14.836Z,90.40
2018-06-24T05:13:42.903Z,90.30
2018-06-24T05:16:10.970Z,90.20
2018-06-24T05:18:39.043Z,90.40
2018-06-24T05:21:07.110Z,90.00
2018-06-24T05:23:35.190Z,89.70
2018-06-24T05:26:03.471Z,89.30
2018-06-24T05:28:31.570Z,89.10
2018-06-24T05:30:59.814Z,89.00
2018-06-24T05:33:27.878Z,88.60
2018-06-24T05:35:55.954Z,88.40
2018-06-24T05:38:24.034Z,88.00
2018-06-24T05:40:52.150Z,87.80
2018-06-24T05:43:20.267Z,87.70
2018-06-24T05:45:48.343Z,87.80
2018-06-24T05:48:16.431Z,87.70
2018-06-24T05:50:44.566Z,87.80
2018-06-24T05:53:12.658Z,87.80
2018-06-24T05:55:40.729Z,87.80
2018-06-24T05:58:08.885Z,87.70
2018-06-24T06:00:36.935Z,87.60
2018-06-24T06:03:05.055Z,87.50
2018-06-24T06:05:33.128Z,87.50
2018-06-24T06:08:01.218Z,87.50
2018-06-24T06:10:29.351Z,87.40
2018-06-24T06:12:57.370Z,86.70
2018-06-24T06:15:25.443Z,86.90
2018-06-24T06:17:53.512Z,86.80
2018-06-24T06:20:21.586Z,86.80
2018-06-24T06:22:49.701Z,86.50
2018-06-24T06:25:17.795Z,86.30
2018-06-24T06:27:45.879Z,86.30
2018-06-24T06:30:14.018Z,86.30
2018-06-24T06:32:42.078Z,86.20
2018-06-24T06:35:10.165Z,86.20
2018-06-24T06:37:38.258Z,86.00
2018-06-24T06:40:06.343Z,85.50
2018-06-24T06:42:34.426Z,85.20
2018-06-24T06:45:02.699Z,84.80
2018-06-24T06:47:30.637Z,84.00
2018-06-24T06:49:58.715Z,83.30
2018-06-24T06:52:26.792Z,83.00
2018-06-24T06:54:54.858Z,82.20
2018-06-24T06:57:22.931Z,81.30
2018-06-24T06:59:51.090Z,80.40
2018-06-24T07:02:19.171Z,79.90
2018-06-24T07:04:47.263Z,79.60
2018-06-24T07:07:15.402Z,79.30
2018-06-24T07:09:43.458Z,78.70
2018-06-24T07:12:11.546Z,77.70
2018-06-24T07:14:39.646Z,77.20
2018-06-24T07:17:07.840Z,77.20
2018-06-24T07:19:35.906Z,76.70
2018-06-24T07:22:04.059Z,76.40
2018-06-24T07:24:32.115Z,76.30
2018-06-24T07:27:00.216Z,75.50
2018-06-24T07:29:28.291Z,75.30
2018-06-24T07:31:56.382Z,74.80
2018-06-24T07:34:24.507Z,74.30
2018-06-24T07:36:52.598Z,73.80
2018-06-24T07:39:20.799Z,72.90
2018-06-24T07:41:48.720Z,72.50
2018-06-24T07:44:16.803Z,71.60
2018-06-24T07:46:44.898Z,72.00
2018-06-24T07:49:12.966Z,71.90
2018-06-24T07:51:41.061Z,71.70
2018-06-24T07:54:09.142Z,71.80
2018-06-24T07:56:37.211Z,72.10
2018-06-24T07:59:05.353Z,72.00
2018-06-24T08:01:33.558Z,71.80
2018-06-24T08:04:01.651Z,71.80
2018-06-24T08:06:29.744Z,71.50
2018-06-24T08:08:57.834Z,71.30
2018-06-24T08:11:26.087Z,71.10
2018-06-24T08:13:54.239Z,71.10
2018-06-24T08:16:22.340Z,71.10
2018-06-24T08:18:50.414Z,71.10
2018-06-24T08:21:18.464Z,70.80
2018-06-24T08:23:46.537Z,70.50
2018-06-24T08:26:14.682Z,70.40
2018-06-24T08:28:42.810Z,70.20
2018-06-24T08:31:10.996Z,69.70
2018-06-24T08:33:39.066Z,69.30
2018-06-24T08:36:07.144Z,69.10
2018-06-24T08:38:35.207Z,68.90
2018-06-24T08:41:03.290Z,68.60
2018-06-24T08:43:31.370Z,68.30
2018-06-24T08:45:59.489Z,67.60
2018-06-24T08:48:27.584Z,67.30
2018-06-24T08:50:55.644Z,67.20
2018-06-24T08:53:23.742Z,67.30
2018-06-24T08:55:51.799Z,66.70
2018-06-24T08:58:19.857Z,66.50
2018-06-24T09:00:47.953Z,66.30
2018-06-24T09:03:16.037Z,66.10
2018-06-24T09:05:44.120Z,65.80
2018-06-24T09:08:12.190Z,65.90
2018-06-24T09:10:40.263Z,65.60
2018-06-24T09:13:08.342Z,65.50
2018-06-24T09:15:36.458Z,65.00
2018-06-24T09:18:04.481Z,65.20
2018-06-24T09:20:32.540Z,65.10
2018-06-24T09:23:00.628Z,64.70
2018-06-24T09:25:28.716Z,64.90
2018-06-24T09:30:24.740Z,65.50
2018-06-24T09:32:52.814Z,66.50
2018-06-24T09:35:20.882Z,66.50
2018-06-24T09:37:48.958Z,66.20
2018-06-24T09:40:17.078Z,65.80
2018-06-24T09:42:45.171Z,65.70
2018-06-24T09:45:13.278Z,65.40
2018-06-24T09:47:41.729Z,64.70
2018-06-24T09:50:09.903Z,64.10
2018-06-24T09:52:38.051Z,64.20
2018-06-24T09:55:06.173Z,64.10
2018-06-24T09:57:34.327Z,64.20
2018-06-24T10:00:02.439Z,63.50
2018-06-24T10:02:30.541Z,63.40
2018-06-24T10:04:58.925Z,63.40
2018-06-24T10:07:27.022Z,63.70
2018-06-24T10:09:55.102Z,63.80
2018-06-24T10:12:23.303Z,63.80
2018-06-24T10:14:51.463Z,63.50
2018-06-24T10:17:19.558Z,63.00
2018-06-24T10:19:47.634Z,63.50
2018-06-24T10:27:11.462Z,62.30
2018-06-24T10:29:39.542Z,61.90
2018-06-24T10:32:07.654Z,61.50
2018-06-24T10:34:35.783Z,61.20
2018-06-24T10:37:03.918Z,61.10
2018-06-24T10:41:59.943Z,60.80
2018-06-24T10:44:28.019Z,60.90
2018-06-24T10:46:56.089Z,61.00
2018-06-24T10:49:24.243Z,60.60
2018-06-24T10:51:52.317Z,61.00
2018-06-24T10:54:20.438Z,60.60
2018-06-24T10:56:48.569Z,60.30
2018-06-24T10:59:16.638Z,59.90
2018-06-24T11:01:44.699Z,59.90
2018-06-24T11:04:12.822Z,59.50
2018-06-24T11:09:09.980Z,59.30
2018-06-24T11:11:38.116Z,59.30
2018-06-24T11:14:06.490Z,59.00
2018-06-24T11:16:34.930Z,58.50
2018-06-24T11:19:02.963Z,58.30
2018-06-24T11:21:31.345Z,58.40
2018-06-24T11:24:00.204Z,58.80
2018-06-24T11:26:28.498Z,58.70
2018-06-24T11:28:56.594Z,58.80
2018-06-24T11:31:24.737Z,59.20
2018-06-24T11:33:52.890Z,59.20
2018-06-24T11:36:20.998Z,59.00
2018-06-24T11:38:49.143Z,58.90
2018-06-24T11:41:17.251Z,58.60
2018-06-24T11:46:13.569Z,59.30
2018-06-24T11:48:41.650Z,59.00
2018-06-24T11:51:10.334Z,59.30
2018-06-24T11:53:38.427Z,59.20
2018-06-24T11:56:06.515Z,59.30
2018-06-24T11:58:34.623Z,59.50
2018-06-24T12:01:03.043Z,59.20
2018-06-24T12:03:31.132Z,59.20
2018-06-24T12:05:59.246Z,59.10
2018-06-24T12:08:27.829Z,59.70
2018-06-24T12:10:56.028Z,59.70
2018-06-24T12:13:24.071Z,59.90
2018-06-24T12:15:52.147Z,59.20
2018-06-24T12:18:20.323Z,59.30
2018-06-24T12:20:48.288Z,60.10
2018-06-24T12:23:16.367Z,59.80
2018-06-24T12:25:44.509Z,60.30
2018-06-24T12:28:12.570Z,60.40
2018-06-24T12:33:08.653Z,60.70
2018-06-24T12:35:36.771Z,60.70
2018-06-24T12:38:05.633Z,60.50
2018-06-24T12:40:35.304Z,60.30
2018-06-24T12:43:04.399Z,60.40
2018-06-24T12:45:33.425Z,60.50
2018-06-24T12:48:01.739Z,60.70
2018-06-24T12:52:58.859Z,62.10
2018-06-24T12:55:27.070Z,61.60
2018-06-24T12:57:55.583Z,61.90
2018-06-24T13:00:24.595Z,61.90
2018-06-24T13:02:52.011Z,61.80
2018-06-24T13:05:20.398Z,61.90
2018-06-24T13:07:48.614Z,62.00
2018-06-24T13:10:16.697Z,62.00
2018-06-24T13:12:44.904Z,62.50
2018-06-24T13:15:12.950Z,62.40
2018-06-24T13:17:41.035Z,62.70
2018-06-24T13:20:09.118Z,62.50
2018-06-24T13:22:37.206Z,62.80
2018-06-24T13:25:05.282Z,62.80
2018-06-24T13:27:33.378Z,62.60
2018-06-24T13:30:01.466Z,62.60
2018-06-24T13:34:57.688Z,62.50
2018-06-24T13:37:25.786Z,62.60
2018-06-24T13:42:22.061Z,62.80
2018-06-24T13:44:50.378Z,63.40
2018-06-24T13:49:47.374Z,63.40
2018-06-24T13:54:43.705Z,62.30
2018-06-24T13:57:12.019Z,61.80
2018-06-24T13:59:40.208Z,61.30
2018-06-24T14:02:08.298Z,60.70
2018-06-24T14:04:36.516Z,60.20
2018-06-24T14:07:04.730Z,59.90
2018-06-24T14:09:32.802Z,60.20
2018-06-24T14:12:01.376Z,60.10
2018-06-24T14:14:29.469Z,60.40
2018-06-24T14:16:57.678Z,60.90
2018-06-24T14:19:26.595Z,61.00
2018-06-24T14:21:54.776Z,61.90
2018-06-24T14:24:23.217Z,61.70
2018-06-24T14:26:51.371Z,61.90
2018-06-24T14:29:20.083Z,62.00
2018-06-24T14:31:48.795Z,62.60
2018-06-24T14:34:17.490Z,62.80
2018-06-24T14:36:45.757Z,62.80
2018-06-24T14:39:13.827Z,62.90
2018-06-24T14:41:42.083Z,62.70
2018-06-24T14:44:10.459Z,62.90
2018-06-24T14:46:38.594Z,63.30
2018-06-24T14:49:07.245Z,63.60
2018-06-24T14:51:35.622Z,63.90
2018-06-24T14:54:04.299Z,64.20
2018-06-24T14:59:01.184Z,64.50
2018-06-24T15:01:29.706Z,65.00
2018-06-24T15:08:54.326Z,65.90
2018-06-24T15:11:22.592Z,66.10
2018-06-24T15:13:50.645Z,66.10
2018-06-24T15:16:18.851Z,66.30
2018-06-24T15:18:46.975Z,66.30
2018-06-24T15:21:15.083Z,66.30
2018-06-24T15:23:43.175Z,66.50
2018-06-24T15:26:11.291Z,66.50
2018-06-24T15:28:39.439Z,66.40
2018-06-24T15:31:07.623Z,66.90
2018-06-24T15:33:35.801Z,67.00
2018-06-24T15:36:03.991Z,66.70
2018-06-24T15:38:32.171Z,66.50
2018-06-24T15:41:00.239Z,67.00
2018-06-24T15:43:28.932Z,66.90
2018-06-24T15:45:57.197Z,67.10
2018-06-24T15:48:25.561Z,67.20
2018-06-24T15:50:53.658Z,67.10
2018-06-24T15:53:21.747Z,67.30
2018-06-24T15:55:49.794Z,67.30
2018-06-24T15:58:17.940Z,67.20
2018-06-24T16:00:46.234Z,67.20
2018-06-24T16:03:14.335Z,67.20
2018-06-24T16:05:42.489Z,67.20
2018-06-24T16:08:10.719Z,67.60
2018-06-24T16:10:39.024Z,67.80
2018-06-24T16:13:07.307Z,68.20
2018-06-24T16:15:36.932Z,68.40
2018-06-24T16:18:05.039Z,68.50
2018-06-24T16:20:33.155Z,68.80
2018-06-24T16:23:01.258Z,68.90
2018-06-24T16:25:29.354Z,69.10
2018-06-24T16:27:58.407Z,69.50
2018-06-24T16:30:27.171Z,70.00
2018-06-24T16:32:55.215Z,70.00
2018-06-24T16:35:23.282Z,70.10
2018-06-24T16:37:51.397Z,70.30
2018-06-24T16:40:19.459Z,70.20
2018-06-24T16:45:15.535Z,70.50
2018-06-24T16:47:43.646Z,70.40
2018-06-24T16:50:11.738Z,70.20
2018-06-24T16:52:39.836Z,69.90
2018-06-24T16:55:07.935Z,69.70
2018-06-24T16:57:36.044Z,69.60
2018-06-24T17:00:04.609Z,69.40
2018-06-24T17:02:32.670Z,69.60
2018-06-24T17:05:00.777Z,69.50
2018-06-24T17:07:28.883Z,69.30
2018-06-24T17:09:57.038Z,69.00
2018-06-24T17:12:25.157Z,69.10
2018-06-24T17:14:53.268Z,69.20
2018-06-24T17:17:21.385Z,69.70
2018-06-24T17:19:49.522Z,69.90
2018-06-24T17:22:17.673Z,70.30
2018-06-24T17:24:45.771Z,70.60
2018-06-24T17:27:13.880Z,70.80
2018-06-24T17:29:42.043Z,71.20
2018-06-24T17:32:10.134Z,71.40
2018-06-24T17:34:38.232Z,71.60
2018-06-24T17:37:06.332Z,72.30
2018-06-24T17:39:34.428Z,72.80
2018-06-24T17:42:02.555Z,73.20
2018-06-24T17:44:30.726Z,73.80
2018-06-24T17:46:58.802Z,74.20
2018-06-24T17:49:27.003Z,74.50
2018-06-24T17:51:55.086Z,74.90
2018-06-24T17:54:23.226Z,75.40
2018-06-24T17:56:51.286Z,75.90
2018-06-24T17:59:19.350Z,76.50
2018-06-24T18:01:47.494Z,77.00
2018-06-24T18:04:15.579Z,77.20
2018-06-24T18:06:43.710Z,77.60
2018-06-24T18:09:12.388Z,78.00
2018-06-24T18:11:40.763Z,78.20
2018-06-24T18:14:09.220Z,78.50
2018-06-24T18:16:37.307Z,79.10
2018-06-24T18:19:05.612Z,79.90
2018-06-24T18:21:33.712Z,81.00
2018-06-24T18:24:02.611Z,82.30
2018-06-24T18:26:30.700Z,84.00
2018-06-24T18:28:58.770Z,85.40
2018-06-24T18:31:26.877Z,86.10
2018-06-24T18:33:54.975Z,86.80
2018-06-24T18:36:23.059Z,88.90
2018-06-24T18:38:51.134Z,89.00
2018-06-24T18:41:19.248Z,90.40
2018-06-24T18:43:47.354Z,90.40
2018-06-24T18:46:15.552Z,90.40
2018-06-24T18:48:43.664Z,90.40
2018-06-24T18:51:11.718Z,90.40
2018-06-24T18:53:39.782Z,90.40
2018-06-24T18:56:07.867Z,90.50
2018-06-24T18:58:35.939Z,90.60
2018-06-24T19:01:04.148Z,90.70
2018-06-24T19:03:32.220Z,91.00
2018-06-24T19:06:00.343Z,91.20
2018-06-24T19:08:28.471Z,91.40
2018-06-24T19:13:24.487Z,91.80
2018-06-24T19:15:52.557Z,91.70
2018-06-24T19:18:20.635Z,91.90
2018-06-24T19:20:48.715Z,92.10
2018-06-24T19:23:16.775Z,92.50
2018-06-24T19:25:44.916Z,92.20
2018-06-24T19:28:13.514Z,92.40
2018-06-24T19:30:43.025Z,92.40
2018-06-24T19:33:11.201Z,92.40
2018-06-24T19:35:39.281Z,92.40
2018-06-24T19:38:07.371Z,92.50
2018-06-24T19:40:35.521Z,92.50
2018-06-24T19:43:03.702Z,92.50
2018-06-24T19:45:31.809Z,93.10
2018-06-24T19:48:00.698Z,92.90
2018-06-24T19:50:28.837Z,92.80
2018-06-24T19:52:56.919Z,92.90
2018-06-24T19:55:25.018Z,92.80
2018-06-24T19:57:53.129Z,92.80
2018-06-24T20:00:21.216Z,92.90
2018-06-24T20:02:49.282Z,92.80
2018-06-24T20:05:17.370Z,92.80
2018-06-24T20:07:45.466Z,92.90
2018-06-24T20:10:13.571Z,92.90
2018-06-24T20:12:41.679Z,92.90
2018-06-24T20:15:09.736Z,93.00
2018-06-24T20:17:37.875Z,93.10
2018-06-24T20:20:07.018Z,93.30
2018-06-24T20:22:35.098Z,93.40
2018-06-24T20:25:03.179Z,93.50
2018-06-24T20:27:31.232Z,93.60
2018-06-24T20:29:59.343Z,93.70
2018-06-24T20:32:27.444Z,93.80
2018-06-24T20:34:55.531Z,93.90
2018-06-24T20:37:23.630Z,93.90
2018-06-24T20:39:51.743Z,94.20
2018-06-24T20:42:19.794Z,94.00
2018-06-24T20:44:47.888Z,94.10
2018-06-24T20:47:15.969Z,94.10
2018-06-24T20:49:45.164Z,94.20
2018-06-24T20:52:13.280Z,94.50
2018-06-24T20:54:41.382Z,94.30
2018-06-24T20:57:09.482Z,94.30
2018-06-24T20:59:37.574Z,94.30
2018-06-24T21:02:05.667Z,94.40
2018-06-24T21:04:33.743Z,94.40
2018-06-24T21:07:01.875Z,94.50
2018-06-24T21:09:29.957Z,94.50
2018-06-24T21:11:58.835Z,94.60
2018-06-24T21:14:26.939Z,94.50
2018-06-24T21:16:55.003Z,94.60
2018-06-24T21:19:23.094Z,94.60
2018-06-24T21:21:53.187Z,94.50
2018-06-24T21:24:26.815Z,94.60
2018-06-24T21:26:54.919Z,94.60
2018-06-24T21:29:23.105Z,94.60
2018-06-24T21:31:51.197Z,94.60
2018-06-24T21:34:19.343Z,94.80
2018-06-24T21:36:47.551Z,94.80
2018-06-24T21:39:16.663Z,94.80
2018-06-24T21:41:44.875Z,94.80
2018-06-24T21:44:12.990Z,95.20
2018-06-24T21:46:41.067Z,95.10
2018-06-24T21:49:09.165Z,95.40
2018-06-24T21:51:37.311Z,95.20
2018-06-24T21:54:05.470Z,95.10
2018-06-24T21:56:33.553Z,95.00
2018-06-24T22:01:29.498Z,94.90
2018-06-24T22:03:57.726Z,94.80
2018-06-24T22:06:25.806Z,94.70
2018-06-24T22:08:53.872Z,94.70
2018-06-24T22:11:22.231Z,94.80
2018-06-24T22:13:50.343Z,94.80
2018-06-24T22:16:18.465Z,94.70
2018-06-24T22:18:46.650Z,94.70
2018-06-24T22:21:14.716Z,94.80
2018-06-24T22:23:42.802Z,94.80
2018-06-24T22:26:10.903Z,94.80
2018-06-24T22:31:06.878Z,94.70
2018-06-24T22:33:34.991Z,94.60
2018-06-24T22:36:03.061Z,94.60
2018-06-24T22:38:31.142Z,94.60
2018-06-24T22:40:59.249Z,94.60
2018-06-24T22:43:27.370Z,94.70
2018-06-24T22:45:55.458Z,94.60
2018-06-24T22:48:23.567Z,94.80
2018-06-24T22:50:51.883Z,94.70
2018-06-24T22:53:20.182Z,94.70
2018-06-24T22:55:48.250Z,94.60
2018-06-24T22:58:16.332Z,94.60
2018-06-24T23:00:44.442Z,94.60
2018-06-24T23:03:12.517Z,94.60
2018-06-24T23:05:40.598Z,94.50
2018-06-24T23:08:08.671Z,94.80
2018-06-24T23:10:36.763Z,94.50
2018-06-24T23:13:05.107Z,94.40
2018-06-24T23:15:33.181Z,94.40
2018-06-24T23:18:01.273Z,94.30
2018-06-24T23:20:29.375Z,94.40
2018-06-24T23:22:57.444Z,94.30
2018-06-24T23:25:25.602Z,94.40
2018-06-24T23:27:53.764Z,94.30
2018-06-24T23:30:21.823Z,94.30
2018-06-24T23:32:49.899Z,94.30
2018-06-24T23:35:18.006Z,94.40
2018-06-24T23:37:46.113Z,94.40
2018-06-24T23:40:14.234Z,94.50
2018-06-24T23:42:42.307Z,94.70
2018-06-24T23:45:10.390Z,94.70
2018-06-24T23:47:38.462Z,94.70
2018-06-24T23:50:06.550Z,94.70
2018-06-24T23:52:34.614Z,94.80
2018-06-24T23:55:02.699Z,94.90
2018-06-24T23:57:30.778Z,95.00
2018-06-24T23:59:58.853Z,95.00
